Time;durP1;ratioP1;P1;durP2;ratioP2;P2;SDS_P1;SDS_P2;PMS_P1;PMS_P2;Temp;Humidity;BMP_temperature;BMP_pressure;BME280_temperature;BME280_humidity;BME280_pressure;Samples;Min_cycle;Max_cycle;Signal;HPM_P1;HPM_P2
2021/11/05 00:01:57;;;;;;;26.85;15.40;;;15.90;99.90;;;;;;4960741;28;20037;-82
2021/11/05 00:04:24;;;;;;;24.38;14.40;;;16.00;99.90;;;;;;4975494;28;20394;-84
2021/11/05 00:06:52;;;;;;;20.63;13.73;;;16.10;99.90;;;;;;4974968;28;20122;-80
2021/11/05 00:09:19;;;;;;;26.02;14.57;;;16.10;99.90;;;;;;4975833;28;20402;-82
2021/11/05 00:11:46;;;;;;;26.33;15.98;;;16.20;99.90;;;;;;4974946;28;20043;-83
2021/11/05 00:14:14;;;;;;;21.23;14.80;;;16.20;99.90;;;;;;4950158;28;20062;-82
2021/11/05 00:16:41;;;;;;;26.88;15.98;;;16.10;99.90;;;;;;4974608;28;20439;-77
2021/11/05 00:19:09;;;;;;;24.70;15.85;;;16.20;99.90;;;;;;4975389;28;20117;-80
2021/11/05 00:21:36;;;;;;;25.73;16.25;;;16.10;99.90;;;;;;4973290;28;20053;-78
2021/11/05 00:24:05;;;;;;;26.98;15.55;;;16.00;99.90;;;;;;4974483;28;20039;-80
2021/11/05 00:26:33;;;;;;;25.67;15.38;;;16.10;99.90;;;;;;4933186;28;20406;-82
2021/11/05 00:29:01;;;;;;;25.05;15.38;;;16.10;99.90;;;;;;4956093;28;20118;-79
2021/11/05 00:31:28;;;;;;;26.88;15.85;;;16.00;99.90;;;;;;4954778;28;20387;-80
2021/11/05 00:33:56;;;;;;;24.25;15.05;;;16.00;99.90;;;;;;4956864;28;20039;-79
2021/11/05 00:36:23;;;;;;;29.48;17.75;;;15.90;99.90;;;;;;4972808;28;20606;-82
2021/11/05 00:38:50;;;;;;;27.63;15.75;;;16.00;99.90;;;;;;4957219;28;20125;-81
2021/11/05 00:41:18;;;;;;;23.17;15.88;;;15.90;99.90;;;;;;4956722;28;20077;-83
2021/11/05 00:43:45;;;;;;;27.27;16.30;;;15.90;99.90;;;;;;4955040;28;20035;-83
2021/11/05 00:46:13;;;;;;;31.48;15.95;;;15.90;99.90;;;;;;4971961;28;20047;-81
2021/11/05 00:48:40;;;;;;;26.35;16.88;;;15.90;99.90;;;;;;4972292;28;20041;-82
2021/11/05 00:51:07;;;;;;;28.63;17.05;;;15.90;99.90;;;;;;4972053;28;20077;-79
2021/11/05 00:53:35;;;;;;;26.52;15.80;;;15.90;99.90;;;;;;4956059;28;20050;-80
2021/11/05 00:56:02;;;;;;;27.90;16.10;;;16.00;99.90;;;;;;4956660;28;20059;-79
2021/11/05 00:58:30;;;;;;;26.27;16.08;;;15.90;99.90;;;;;;4973445;28;20394;-79
2021/11/05 01:00:57;;;;;;;24.08;16.05;;;15.90;99.90;;;;;;4973320;28;20054;-78
2021/11/05 01:03:24;;;;;;;28.20;16.63;;;15.80;99.90;;;;;;4968998;28;20054;-80
2021/11/05 01:05:51;;;;;;;29.40;16.98;;;15.90;99.90;;;;;;4954292;29;20423;-81
2021/11/05 01:08:19;;;;;;;30.25;16.90;;;15.80;99.90;;;;;;4953472;29;20103;-81
2021/11/05 01:10:46;;;;;;;29.98;17.02;;;15.80;99.90;;;;;;4954393;29;20054;-82
2021/11/05 01:13:13;;;;;;;27.67;17.00;;;15.80;99.90;;;;;;4954173;29;20055;-81
2021/11/05 01:15:41;;;;;;;27.42;16.20;;;15.70;99.90;;;;;;4954304;29;20057;-84
2021/11/05 01:18:08;;;;;;;29.73;16.10;;;15.70;99.90;;;;;;4937478;29;20446;-80
2021/11/05 01:20:35;;;;;;;27.42;17.15;;;15.70;99.90;;;;;;4937068;29;20051;-81
2021/11/05 01:23:03;;;;;;;35.53;19.05;;;15.80;99.90;;;;;;4937168;29;20055;-82
2021/11/05 01:25:30;;;;;;;30.80;18.67;;;15.80;99.90;;;;;;4968991;28;20118;-80
2021/11/05 01:27:57;;;;;;;33.83;20.02;;;15.70;99.90;;;;;;4952392;29;20043;-81
2021/11/05 01:30:25;;;;;;;32.25;17.55;;;15.70;99.90;;;;;;4954080;29;20627;-84
2021/11/05 01:32:53;;;;;;;43.40;18.65;;;15.50;99.90;;;;;;4954049;29;20398;-84
2021/11/05 01:35:20;;;;;;;34.78;18.20;;;15.60;99.90;;;;;;4921582;29;20133;-83
2021/11/05 01:37:48;;;;;;;31.85;18.08;;;15.70;99.90;;;;;;4968459;28;20109;-83
2021/11/05 01:40:16;;;;;;;29.23;18.40;;;15.70;99.90;;;;;;4937046;29;20039;-83
2021/11/05 01:42:44;;;;;;;28.27;19.17;;;15.70;99.90;;;;;;4952527;29;20491;-82
2021/11/05 01:45:12;;;;;;;30.75;17.92;;;15.60;99.90;;;;;;4936724;29;20057;-82
2021/11/05 01:47:40;;;;;;;31.33;17.75;;;15.60;99.90;;;;;;4968419;28;20130;-81
2021/11/05 01:50:09;;;;;;;31.55;18.05;;;15.70;99.90;;;;;;4953941;29;20126;-80
2021/11/05 01:52:39;;;;;;;32.38;19.30;;;15.60;99.90;;;;;;4936973;29;20050;-81
2021/11/05 01:55:08;;;;;;;28.73;17.42;;;15.60;99.90;;;;;;4954106;29;20126;-82
2021/11/05 01:57:36;;;;;;;29.77;17.55;;;15.60;99.90;;;;;;4968183;28;20114;-82
2021/11/05 02:00:06;;;;;;;26.25;15.73;;;15.50;99.90;;;;;;4952602;29;20043;-81
2021/11/05 02:02:33;;;;;;;29.17;17.50;;;15.20;99.90;;;;;;4960113;28;20125;-80
2021/11/05 02:05:00;;;;;;;26.77;16.23;;;15.20;99.90;;;;;;4972922;28;20035;-80
2021/11/05 02:07:31;;;;;;;24.63;15.43;;;15.20;99.90;;;;;;4971614;28;20047;-81
2021/11/05 02:10:03;;;;;;;25.83;15.30;;;15.20;99.90;;;;;;4971587;28;20066;-80
2021/11/05 02:12:30;;;;;;;22.10;14.32;;;15.30;99.90;;;;;;4972292;28;20431;-80
2021/11/05 02:14:58;;;;;;;22.15;14.43;;;15.40;99.90;;;;;;4972739;28;20073;-79
2021/11/05 02:17:26;;;;;;;23.88;14.98;;;15.50;99.90;;;;;;4972433;28;20047;-80
2021/11/05 02:19:57;;;;;;;26.13;14.43;;;15.50;99.90;;;;;;4972686;28;20043;-79
2021/11/05 02:22:25;;;;;;;28.23;13.93;;;15.50;99.90;;;;;;4972662;28;20085;-82
2021/11/05 02:24:54;;;;;;;23.55;15.07;;;15.50;99.90;;;;;;4972545;28;20043;-82
2021/11/05 02:27:21;;;;;;;26.25;15.50;;;15.30;99.90;;;;;;4955031;28;20138;-81
2021/11/05 02:29:49;;;;;;;26.08;14.82;;;15.40;99.90;;;;;;4955286;28;20047;-82
2021/11/05 02:32:16;;;;;;;28.95;15.68;;;15.30;99.90;;;;;;4972177;28;20598;-81
2021/11/05 02:34:43;;;;;;;24.98;14.27;;;15.50;99.90;;;;;;4972413;28;20403;-80
2021/11/05 02:37:10;;;;;;;23.15;14.25;;;15.10;99.90;;;;;;4972271;28;20398;-81
2021/11/05 02:39:38;;;;;;;24.83;15.82;;;15.10;99.90;;;;;;4955483;28;20039;-79
2021/11/05 02:42:05;;;;;;;25.52;14.27;;;15.30;99.90;;;;;;4970802;28;20069;-80
2021/11/05 02:44:33;;;;;;;21.38;12.98;;;15.50;99.90;;;;;;4971545;28;20055;-80
2021/11/05 02:47:24;;;;;;;22.15;14.18;;;15.70;99.90;;;;;;4955370;28;20043;-82
2021/11/05 02:50:08;;;;;;;23.65;13.50;;;15.60;99.90;;;;;;4972138;28;20050;-78
2021/11/05 02:52:35;;;;;;;24.02;13.77;;;15.40;99.90;;;;;;4955445;28;20051;-79
2021/11/05 02:55:05;;;;;;;21.83;13.15;;;15.60;99.90;;;;;;4972686;28;20121;-81
2021/11/05 02:57:32;;;;;;;27.27;15.05;;;15.60;99.90;;;;;;4939286;28;20149;-79
2021/11/05 02:59:59;;;;;;;28.23;14.43;;;15.70;99.90;;;;;;4970917;28;20510;-80
2021/11/05 03:02:27;;;;;;;24.67;14.15;;;15.70;99.90;;;;;;4971939;28;20035;-81
2021/11/05 03:04:54;;;;;;;28.40;13.82;;;15.60;99.90;;;;;;4972431;28;20043;-81
2021/11/05 03:07:22;;;;;;;22.60;13.68;;;15.40;99.90;;;;;;4972319;28;20050;-79
2021/11/05 03:09:49;;;;;;;24.55;13.50;;;15.50;99.90;;;;;;4955270;28;20399;-76
2021/11/05 03:12:17;;;;;;;26.15;13.70;;;15.60;99.90;;;;;;4955100;28;20074;-82
2021/11/05 03:14:44;;;;;;;21.10;13.55;;;15.60;99.90;;;;;;4952709;29;20444;-80
2021/11/05 03:17:13;;;;;;;23.88;13.50;;;15.60;99.90;;;;;;4952682;29;20503;-79
2021/11/05 03:19:41;;;;;;;24.73;14.23;;;15.60;99.90;;;;;;4953106;29;20127;-77
2021/11/05 03:22:09;;;;;;;18.27;12.98;;;15.60;99.90;;;;;;4953411;28;20130;-81
2021/11/05 03:24:36;;;;;;;20.05;13.23;;;15.60;99.90;;;;;;4955823;29;20070;-79
2021/11/05 03:27:04;;;;;;;23.45;13.18;;;15.50;99.90;;;;;;4956306;29;20122;-80
2021/11/05 03:29:31;;;;;;;22.95;12.50;;;15.60;99.90;;;;;;4956163;29;20468;-81
2021/11/05 03:31:58;;;;;;;20.30;12.40;;;15.50;99.90;;;;;;4956137;29;20049;-80
2021/11/05 03:34:26;;;;;;;19.83;12.13;;;15.50;99.90;;;;;;4955119;29;20050;-83
2021/11/05 03:36:53;;;;;;;24.35;12.13;;;15.50;99.90;;;;;;4970864;28;20049;-83
2021/11/05 03:39:20;;;;;;;22.23;12.88;;;15.50;99.90;;;;;;4955886;29;20047;-79
2021/11/05 03:41:48;;;;;;;24.88;13.65;;;15.20;99.90;;;;;;4955132;29;20051;-78
2021/11/05 03:44:15;;;;;;;22.58;14.60;;;15.20;99.90;;;;;;4956019;29;20078;-82
2021/11/05 03:46:44;;;;;;;24.58;15.05;;;14.80;99.90;;;;;;4970603;28;20039;-79
2021/11/05 03:49:11;;;;;;;25.17;15.02;;;14.70;99.90;;;;;;4956000;29;20051;-80
2021/11/05 03:51:39;;;;;;;26.55;16.00;;;14.70;99.90;;;;;;4954993;29;20406;-78
2021/11/05 03:54:06;;;;;;;23.52;15.55;;;14.70;99.90;;;;;;4955537;29;20046;-80
2021/11/05 03:56:35;;;;;;;25.38;15.82;;;14.70;99.90;;;;;;4954962;29;20047;-79
2021/11/05 03:59:02;;;;;;;25.02;15.70;;;14.80;99.90;;;;;;4938916;29;20086;-80
2021/11/05 04:01:30;;;;;;;23.65;14.35;;;15.00;99.90;;;;;;4954932;29;20399;-83
2021/11/05 04:03:58;;;;;;;26.40;15.60;;;15.10;99.90;;;;;;4955654;29;20078;-81
2021/11/05 04:06:26;;;;;;;24.52;15.70;;;15.20;99.90;;;;;;4956211;29;20078;-80
2021/11/05 04:08:53;;;;;;;23.55;15.68;;;15.10;99.90;;;;;;4955431;29;20130;-79
2021/11/05 04:11:21;;;;;;;24.67;15.80;;;15.20;99.90;;;;;;4970799;28;20126;-80
2021/11/05 04:13:49;;;;;;;25.00;15.60;;;15.20;99.90;;;;;;4967506;28;20047;-79
2021/11/05 04:16:16;;;;;;;20.60;15.05;;;15.20;99.90;;;;;;4942134;28;20506;-80
2021/11/05 04:18:44;;;;;;;25.75;14.73;;;15.20;99.90;;;;;;4974042;28;20074;-80
2021/11/05 04:21:11;;;;;;;29.98;15.75;;;15.10;99.90;;;;;;4975024;28;20057;-80
2021/11/05 04:23:39;;;;;;;23.08;15.25;;;15.10;99.90;;;;;;4973513;28;20047;-78
2021/11/05 04:26:07;;;;;;;22.77;15.15;;;15.10;99.90;;;;;;4973695;28;20043;-79
2021/11/05 04:28:35;;;;;;;24.83;14.93;;;15.00;99.90;;;;;;4973263;28;20549;-80
2021/11/05 04:31:02;;;;;;;21.10;13.77;;;15.00;99.90;;;;;;4941932;28;20046;-78
2021/11/05 04:33:31;;;;;;;25.48;15.30;;;14.80;99.90;;;;;;4974033;28;20069;-79
2021/11/05 04:36:00;;;;;;;26.40;14.05;;;14.80;99.90;;;;;;4974452;28;20038;-79
2021/11/05 04:38:27;;;;;;;19.65;13.02;;;14.80;99.90;;;;;;4974228;28;20062;-78
2021/11/05 04:40:56;;;;;;;19.75;13.18;;;14.80;99.90;;;;;;4957254;28;20074;-78
2021/11/05 04:43:23;;;;;;;19.23;13.35;;;14.70;99.90;;;;;;4974300;28;20043;-77
2021/11/05 04:45:51;;;;;;;23.70;13.68;;;14.70;99.90;;;;;;4974065;28;20081;-76
2021/11/05 04:48:19;;;;;;;20.27;13.05;;;14.50;99.90;;;;;;4974189;28;20117;-77
2021/11/05 04:50:46;;;;;;;21.60;13.60;;;14.40;99.90;;;;;;4974430;28;20203;-79
2021/11/05 04:53:13;;;;;;;20.23;13.88;;;14.40;99.90;;;;;;4973166;28;20046;-79
2021/11/05 04:55:41;;;;;;;23.13;13.35;;;14.50;99.90;;;;;;4974410;28;20038;-79
2021/11/05 04:58:08;;;;;;;23.70;14.50;;;14.40;99.90;;;;;;4974123;28;20121;-78
2021/11/05 05:00:36;;;;;;;25.58;13.02;;;14.50;99.90;;;;;;4973944;28;20045;-76
2021/11/05 05:03:03;;;;;;;28.25;14.20;;;14.40;99.90;;;;;;4968416;28;20039;-80
2021/11/05 05:05:34;;;;;;;21.08;13.32;;;14.50;99.90;;;;;;4954595;29;20042;-81
2021/11/05 05:08:01;;;;;;;23.02;13.48;;;14.50;99.90;;;;;;4937480;29;20058;-79
2021/11/05 05:10:30;;;;;;;23.67;13.20;;;14.40;99.90;;;;;;4954514;29;20178;-80
2021/11/05 05:12:57;;;;;;;21.77;13.73;;;14.50;99.90;;;;;;4937325;29;20146;-81
2021/11/05 05:15:24;;;;;;;22.13;14.75;;;14.60;99.90;;;;;;4954410;29;20106;-79
2021/11/05 05:17:52;;;;;;;25.23;15.15;;;14.60;99.90;;;;;;4954422;29;20138;-83
2021/11/05 05:20:21;;;;;;;19.83;13.38;;;14.40;99.90;;;;;;4937631;29;20039;-83
2021/11/05 05:22:48;;;;;;;22.17;14.48;;;14.10;99.90;;;;;;4953755;28;20151;-80
2021/11/05 05:25:17;;;;;;;25.23;14.48;;;14.10;99.90;;;;;;4937223;29;20049;-81
2021/11/05 05:27:46;;;;;;;22.05;14.10;;;14.20;99.90;;;;;;4969340;28;20644;-80
2021/11/05 05:30:15;;;;;;;23.10;16.05;;;14.50;99.90;;;;;;4954486;29;20043;-82
2021/11/05 05:32:44;;;;;;;21.83;13.85;;;14.60;99.90;;;;;;4954383;29;20047;-80
2021/11/05 05:35:13;;;;;;;26.77;16.95;;;14.70;99.90;;;;;;4937287;29;20047;-78
2021/11/05 05:37:40;;;;;;;26.00;16.27;;;14.70;99.90;;;;;;4954359;29;20546;-79
2021/11/05 05:40:08;;;;;;;26.63;15.75;;;14.80;99.90;;;;;;4937841;29;20402;-78
2021/11/05 05:42:36;;;;;;;24.63;15.40;;;14.60;99.90;;;;;;4936899;29;20129;-77
2021/11/05 05:45:05;;;;;;;31.27;18.50;;;14.40;99.90;;;;;;4953356;28;20126;-80
2021/11/05 05:47:32;;;;;;;44.58;28.50;;;14.80;99.90;;;;;;4936828;29;20126;-79
2021/11/05 05:50:00;;;;;;;33.67;21.25;;;15.20;99.90;;;;;;4953896;29;20087;-81
2021/11/05 05:52:27;;;;;;;26.67;17.00;;;15.20;99.90;;;;;;4954111;29;20456;-82
2021/11/05 05:54:55;;;;;;;22.77;15.63;;;15.10;99.90;;;;;;4936873;29;20036;-77
2021/11/05 05:57:22;;;;;;;50.90;30.60;;;14.80;99.90;;;;;;4953398;29;20043;-81
2021/11/05 05:59:49;;;;;;;52.28;31.77;;;15.20;99.90;;;;;;4953577;29;20051;-83
2021/11/05 06:02:20;;;;;;;29.25;19.63;;;15.20;99.90;;;;;;4953903;29;20043;-87
2021/11/05 06:04:47;;;;;;;24.02;15.15;;;15.20;99.90;;;;;;4971393;28;20053;-81
2021/11/05 06:07:15;;;;;;;26.42;15.35;;;15.20;99.90;;;;;;4972169;28;20046;-81
2021/11/05 06:09:42;;;;;;;24.95;14.02;;;15.10;99.90;;;;;;4988665;28;20088;-83
2021/11/05 06:12:09;;;;;;;30.05;16.10;;;15.10;99.90;;;;;;4987900;28;20656;-79
2021/11/05 06:14:37;;;;;;;28.30;15.60;;;14.90;99.90;;;;;;4970992;28;20074;-80
2021/11/05 06:17:05;;;;;;;27.52;16.38;;;14.80;99.90;;;;;;4972514;28;20060;-82
2021/11/05 06:19:32;;;;;;;24.25;15.27;;;15.20;99.90;;;;;;4955618;28;20137;-81
2021/11/05 06:22:00;;;;;;;32.28;16.15;;;15.20;99.90;;;;;;4972668;28;20130;-81
2021/11/05 06:24:27;;;;;;;25.83;15.38;;;15.00;99.90;;;;;;4955635;28;20101;-81
2021/11/05 06:26:55;;;;;;;31.17;17.00;;;15.10;99.90;;;;;;4954320;28;20730;-78
2021/11/05 06:29:22;;;;;;;32.35;17.42;;;15.30;99.90;;;;;;4970723;28;20089;-77
2021/11/05 06:31:49;;;;;;;30.08;18.45;;;15.40;99.90;;;;;;4970825;28;20051;-81
2021/11/05 06:34:17;;;;;;;32.50;16.33;;;15.00;99.90;;;;;;4970167;28;20113;-83
2021/11/05 06:36:44;;;;;;;29.88;16.67;;;15.00;99.90;;;;;;4954323;28;20065;-81
2021/11/05 06:39:12;;;;;;;26.48;16.67;;;15.10;99.90;;;;;;4970546;28;20066;-79
2021/11/05 06:41:39;;;;;;;22.20;13.98;;;15.40;99.90;;;;;;4971753;28;20046;-84
2021/11/05 06:44:07;;;;;;;26.35;15.68;;;15.40;99.90;;;;;;4972208;28;20046;-82
2021/11/05 06:46:34;;;;;;;26.13;15.25;;;15.50;99.90;;;;;;4971666;28;20053;-82
2021/11/05 06:49:01;;;;;;;30.13;16.65;;;15.70;99.90;;;;;;4987274;28;20120;-81
2021/11/05 06:51:29;;;;;;;23.48;15.88;;;15.70;99.90;;;;;;4972438;28;20046;-79
2021/11/05 06:53:58;;;;;;;32.97;16.63;;;15.50;99.90;;;;;;4970705;28;20047;-82
2021/11/05 06:56:26;;;;;;;28.52;16.45;;;15.70;99.90;;;;;;4974302;28;20336;-82
2021/11/05 06:58:56;;;;;;;29.42;16.77;;;15.90;99.90;;;;;;4959545;28;20117;-81
2021/11/05 07:01:24;;;;;;;25.13;15.70;;;16.00;99.90;;;;;;4975956;28;20443;-80
2021/11/05 07:03:51;;;;;;;25.33;15.25;;;16.20;99.90;;;;;;4966756;28;20074;-80
2021/11/05 07:06:19;;;;;;;26.10;16.10;;;16.20;99.90;;;;;;4956549;29;20489;-80
2021/11/05 07:08:46;;;;;;;20.67;13.20;;;16.10;99.90;;;;;;4956834;29;20039;-81
2021/11/05 07:11:13;;;;;;;29.08;14.55;;;16.20;99.90;;;;;;4956971;29;20055;-80
2021/11/05 07:13:40;;;;;;;22.90;13.43;;;16.30;99.90;;;;;;4939389;29;20048;-81
2021/11/05 07:16:08;;;;;;;22.23;13.48;;;16.30;99.90;;;;;;4955771;29;20363;-80
2021/11/05 07:18:37;;;;;;;27.25;15.95;;;16.40;99.90;;;;;;4954754;29;20047;-80
2021/11/05 07:21:08;;;;;;;25.00;15.13;;;16.10;99.90;;;;;;4955206;29;20086;-80
2021/11/05 07:23:35;;;;;;;26.33;16.42;;;15.90;99.90;;;;;;4938038;29;20462;-81
2021/11/05 07:26:06;;;;;;;32.58;16.60;;;15.90;99.90;;;;;;4955118;29;20043;-80
2021/11/05 07:28:34;;;;;;;26.60;15.57;;;16.10;99.90;;;;;;4955574;29;20043;-82
2021/11/05 07:31:02;;;;;;;28.02;15.23;;;16.30;99.90;;;;;;4954969;29;20098;-80
2021/11/05 07:33:29;;;;;;;26.10;15.77;;;16.40;99.90;;;;;;4955380;29;20047;-79
2021/11/05 07:35:57;;;;;;;22.63;14.10;;;16.50;99.90;;;;;;4955127;28;20047;-82
2021/11/05 07:38:24;;;;;;;30.33;14.50;;;16.60;99.90;;;;;;4955691;29;20043;-81
2021/11/05 07:40:51;;;;;;;20.58;13.95;;;16.60;99.90;;;;;;4939449;29;20368;-80
2021/11/05 07:43:19;;;;;;;26.00;14.45;;;16.70;99.90;;;;;;4955728;29;20118;-78
2021/11/05 07:45:46;;;;;;;26.30;14.15;;;16.80;99.90;;;;;;4938608;29;20047;-79
2021/11/05 07:48:14;;;;;;;22.70;12.85;;;16.90;99.90;;;;;;4956070;29;20136;-79
2021/11/05 07:50:41;;;;;;;25.25;13.05;;;16.80;99.90;;;;;;4956394;29;20470;-81
2021/11/05 07:53:08;;;;;;;20.67;13.90;;;16.70;99.90;;;;;;4954523;29;20051;-80
2021/11/05 07:55:35;;;;;;;20.25;12.95;;;16.50;99.90;;;;;;4956006;29;20119;-80
2021/11/05 07:58:03;;;;;;;18.77;13.07;;;16.70;99.90;;;;;;4922527;29;20059;-79
2021/11/05 08:00:30;;;;;;;23.48;13.85;;;16.90;99.90;;;;;;4970627;28;20474;-82
2021/11/05 08:02:58;;;;;;;19.20;11.43;;;16.90;99.90;;;;;;4938691;28;20046;-80
2021/11/05 08:05:25;;;;;;;20.50;11.75;;;16.90;99.90;;;;;;4973883;28;20073;-80
2021/11/05 08:07:53;;;;;;;17.73;11.00;;;16.80;99.90;;;;;;4973068;28;20462;-80
2021/11/05 08:10:20;;;;;;;19.83;11.15;;;16.90;99.90;;;;;;4973565;28;20070;-81
2021/11/05 08:12:51;;;;;;;19.23;11.07;;;16.90;99.90;;;;;;4974242;28;20143;-80
2021/11/05 08:15:22;;;;;;;21.90;12.35;;;16.90;99.90;;;;;;4974226;28;20126;-80
2021/11/05 08:17:50;;;;;;;17.63;11.07;;;16.90;99.90;;;;;;4974702;28;20045;-81
2021/11/05 08:20:18;;;;;;;19.95;11.25;;;17.00;99.90;;;;;;4973417;28;20512;-80
2021/11/05 08:22:46;;;;;;;18.92;11.45;;;17.00;99.90;;;;;;4974667;28;20038;-80
2021/11/05 08:25:15;;;;;;;19.60;11.82;;;17.00;99.90;;;;;;4974730;28;20134;-82
2021/11/05 08:27:43;;;;;;;23.83;12.00;;;17.00;99.90;;;;;;4974622;28;20057;-79
2021/11/05 08:30:20;;;;;;;16.35;10.75;;;17.00;99.90;;;;;;4974840;28;20046;-81
2021/11/05 08:32:49;;;;;;;20.17;11.15;;;17.00;99.90;;;;;;4957523;28;20082;-81
2021/11/05 08:35:17;;;;;;;19.25;10.52;;;17.10;99.90;;;;;;4957391;28;20054;-81
2021/11/05 08:37:45;;;;;;;18.52;10.00;;;16.90;99.90;;;;;;4974522;28;20061;-81
2021/11/05 08:40:12;;;;;;;23.60;11.63;;;16.80;99.90;;;;;;4974508;28;20061;-80
2021/11/05 08:42:40;;;;;;;23.45;12.50;;;16.90;99.90;;;;;;4974036;28;20039;-79
2021/11/05 08:45:09;;;;;;;23.15;12.90;;;16.80;99.90;;;;;;4974060;28;20069;-82
2021/11/05 08:47:40;;;;;;;20.95;12.65;;;16.80;99.90;;;;;;4956938;28;20065;-79
2021/11/05 08:50:12;;;;;;;21.27;12.15;;;16.80;99.90;;;;;;4974415;28;20473;-82
2021/11/05 08:52:40;;;;;;;22.90;13.07;;;17.10;99.90;;;;;;4974283;28;20355;-80
2021/11/05 08:55:10;;;;;;;23.45;12.95;;;17.00;99.90;;;;;;4974552;28;20038;-81
2021/11/05 08:57:39;;;;;;;20.75;13.07;;;17.00;99.90;;;;;;4972931;28;20047;-81
2021/11/05 09:00:20;;;;;;;20.17;12.45;;;17.20;99.90;;;;;;4989480;28;20039;-80
2021/11/05 09:02:47;;;;;;;19.85;12.48;;;17.40;99.90;;;;;;4988536;28;20050;-79
2021/11/05 09:05:17;;;;;;;22.30;12.48;;;17.40;99.90;;;;;;4957049;28;20073;-81
2021/11/05 09:07:46;;;;;;;19.80;11.75;;;17.50;99.90;;;;;;4956715;28;20114;-81
2021/11/05 09:10:14;;;;;;;22.27;12.48;;;17.40;99.90;;;;;;4974077;28;20043;-81
2021/11/05 09:12:42;;;;;;;24.75;12.00;;;17.20;99.90;;;;;;4956300;28;20165;-81
2021/11/05 09:15:13;;;;;;;20.98;12.30;;;17.40;99.90;;;;;;4974138;28;20070;-80
2021/11/05 09:17:41;;;;;;;24.75;12.90;;;17.40;99.90;;;;;;4956860;28;20039;-81
2021/11/05 09:20:10;;;;;;;19.08;12.75;;;17.30;99.90;;;;;;4974171;28;20118;-82
2021/11/05 09:22:40;;;;;;;18.77;11.82;;;17.60;99.90;;;;;;4973137;28;20043;-80
2021/11/05 09:25:07;;;;;;;19.25;11.23;;;17.90;99.90;;;;;;4956509;28;20043;-81
2021/11/05 09:27:35;;;;;;;17.73;11.70;;;18.20;99.90;;;;;;4972964;28;20074;-80
2021/11/05 09:30:06;;;;;;;19.52;12.57;;;18.50;99.90;;;;;;4973683;28;20401;-82
2021/11/05 09:32:33;;;;;;;21.17;10.88;;;18.30;99.90;;;;;;4956194;28;20061;-82
2021/11/05 09:35:01;;;;;;;19.50;9.93;;;18.40;99.90;;;;;;4956272;28;20039;-80
2021/11/05 09:37:28;;;;;;;16.77;10.00;;;18.80;99.90;;;;;;4955953;28;20070;-81
2021/11/05 09:39:55;;;;;;;17.88;9.50;;;19.00;99.90;;;;;;4955985;28;20455;-80
2021/11/05 09:42:22;;;;;;;14.68;9.65;;;19.20;99.90;;;;;;4972840;28;20069;-82
2021/11/05 09:44:50;;;;;;;16.65;9.85;;;19.60;99.90;;;;;;4972045;28;20070;-80
2021/11/05 09:47:20;;;;;;;19.80;10.27;;;19.80;99.90;;;;;;4973021;28;20122;-82
2021/11/05 09:49:47;;;;;;;17.52;9.63;;;19.80;99.90;;;;;;4972362;28;20113;-81
2021/11/05 09:52:17;;;;;;;15.20;10.65;;;20.00;99.90;;;;;;4955741;28;20077;-81
2021/11/05 09:54:49;;;;;;;18.25;10.30;;;20.00;99.90;;;;;;4972819;28;20089;-81
2021/11/05 09:57:16;;;;;;;18.58;9.65;;;19.60;99.90;;;;;;4939789;28;20133;-80
2021/11/05 09:59:44;;;;;;;15.55;8.43;;;19.70;99.90;;;;;;4973157;28;20043;-81
2021/11/05 10:02:14;;;;;;;17.08;8.95;;;19.00;99.90;;;;;;4972787;28;20048;-80
2021/11/05 10:04:43;;;;;;;19.20;9.93;;;19.20;99.90;;;;;;4955280;28;20046;-80
2021/11/05 10:07:11;;;;;;;13.85;9.02;;;19.50;99.90;;;;;;4973043;28;20043;-81
2021/11/05 10:10:03;;;;;;;17.77;8.63;;;19.80;99.90;;;;;;4972875;28;20069;-81
2021/11/05 10:12:30;;;;;;;20.63;9.80;;;19.50;99.90;;;;;;4972388;28;20046;-82
2021/11/05 10:15:05;;;;;;;17.70;9.60;;;20.00;99.90;;;;;;4972511;28;20043;-80
2021/11/05 10:17:35;;;;;;;13.77;8.82;;;20.20;99.90;;;;;;4972632;28;20047;-81
2021/11/05 10:20:07;;;;;;;18.80;8.55;;;20.20;99.90;;;;;;4955674;28;20531;-80
2021/11/05 10:22:48;;;;;;;20.63;9.88;;;20.40;99.90;;;;;;4955801;28;20050;-79
2021/11/05 10:25:24;;;;;;;18.10;9.70;;;20.50;99.90;;;;;;4955425;28;20086;-82
2021/11/05 10:28:06;;;;;;;13.07;8.07;;;20.60;99.90;;;;;;4955081;28;20118;-81
2021/11/05 10:30:45;;;;;;;14.60;8.48;;;20.50;99.90;;;;;;4972523;28;20078;-81
2021/11/05 10:33:14;;;;;;;17.15;8.32;;;20.40;99.90;;;;;;4955206;28;20050;-83
2021/11/05 10:35:44;;;;;;;17.10;8.90;;;20.30;99.90;;;;;;4955419;28;20086;-81
2021/11/05 10:38:29;;;;;;;17.70;8.73;;;20.60;99.90;;;;;;4972511;28;20039;-79
2021/11/05 10:40:59;;;;;;;15.55;8.90;;;20.50;99.90;;;;;;4955059;28;20517;-83
2021/11/05 10:43:38;;;;;;;15.25;8.43;;;20.70;99.90;;;;;;4955379;28;20039;-79
2021/11/05 10:46:08;;;;;;;13.93;8.48;;;20.40;99.90;;;;;;4972189;28;20120;-78
2021/11/05 10:48:39;;;;;;;15.30;8.30;;;20.80;99.90;;;;;;4971901;28;20487;-79
2021/11/05 10:51:08;;;;;;;16.55;7.63;;;20.60;99.90;;;;;;4955159;28;20061;-80
2021/11/05 10:53:39;;;;;;;15.57;8.88;;;20.50;99.90;;;;;;4954968;28;20466;-79
2021/11/05 10:56:14;;;;;;;16.05;9.10;;;20.50;99.90;;;;;;4955101;28;20436;-78
2021/11/05 10:58:51;;;;;;;17.10;8.10;;;20.60;99.90;;;;;;4971902;28;20379;-79
2021/11/05 11:01:21;;;;;;;16.58;8.70;;;20.60;99.90;;;;;;4972252;28;20038;-78
2021/11/05 11:03:51;;;;;;;13.30;8.68;;;20.90;99.90;;;;;;4970660;28;20586;-80
2021/11/05 11:06:23;;;;;;;;;;;21.00;99.90;;;;;;4987468;28;20047;-76
2021/11/05 11:08:59;;;;;;;16.50;8.27;;;21.00;99.90;;;;;;4971817;28;19926;-77
2021/11/05 11:11:33;;;;;;;16.40;8.55;;;21.30;99.90;;;;;;4971840;28;20042;-80
2021/11/05 11:14:18;;;;;;;13.25;7.78;;;21.40;99.90;;;;;;4977499;28;20047;-79
2021/11/05 11:16:47;;;;;;;13.02;7.90;;;21.50;99.90;;;;;;4956020;28;20078;-80
2021/11/05 11:19:18;;;;;;;15.43;8.13;;;21.70;99.90;;;;;;4971767;28;20454;-80
2021/11/05 11:21:48;;;;;;;15.85;8.20;;;21.90;99.90;;;;;;4972114;28;20047;-80
2021/11/05 11:24:20;;;;;;;15.82;7.80;;;21.90;99.90;;;;;;4971631;28;20529;-80
2021/11/05 11:26:49;;;;;;;13.02;7.93;;;21.80;99.90;;;;;;4970591;28;20061;-79
2021/11/05 11:29:19;;;;;;;14.80;7.38;;;21.70;99.90;;;;;;4971704;28;20533;-80
2021/11/05 11:31:46;;;;;;;17.77;8.23;;;21.50;99.90;;;;;;4970945;28;20049;-80
2021/11/05 11:34:15;;;;;;;15.60;7.63;;;21.70;99.90;;;;;;4971293;28;20047;-80
2021/11/05 11:36:45;;;;;;;16.05;8.00;;;21.50;99.90;;;;;;4971956;28;20517;-81
2021/11/05 11:39:17;;;;;;;12.65;8.15;;;21.70;99.90;;;;;;4983581;28;20043;-82
2021/11/05 11:41:45;;;;;;;19.70;8.32;;;21.40;99.90;;;;;;4972386;28;20070;-82
2021/11/05 11:44:18;;;;;;;18.00;9.32;;;21.40;99.90;;;;;;4989329;28;20043;-83
2021/11/05 11:47:06;;;;;;;14.70;8.23;;;20.90;99.90;;;;;;4975063;28;20039;-84
2021/11/05 11:49:40;;;;;;;17.13;8.30;;;21.20;99.90;;;;;;4958106;28;20061;-82
2021/11/05 11:52:29;;;;;;;16.73;8.38;;;21.60;99.90;;;;;;4973648;28;20097;-82
2021/11/05 11:55:09;;;;;;;18.98;8.50;;;21.50;99.90;;;;;;4973756;28;20043;-79
2021/11/05 11:57:37;;;;;;;18.00;7.63;;;21.90;99.90;;;;;;4957778;28;20470;-82
2021/11/05 12:00:07;;;;;;;16.80;8.05;;;21.90;99.90;;;;;;4975170;28;20054;-82
2021/11/05 12:02:37;;;;;;;12.88;6.50;;;22.10;99.90;;;;;;4974705;28;20101;-83
2021/11/05 12:05:24;;;;;;;13.70;7.25;;;21.80;99.90;;;;;;4964628;28;20435;-80
2021/11/05 12:08:13;;;;;;;19.52;7.43;;;21.70;99.90;;;;;;4937881;28;20122;-82
2021/11/05 12:10:54;;;;;;;14.20;6.93;;;22.00;99.90;;;;;;4956145;28;20516;-82
2021/11/05 12:13:43;;;;;;;15.68;7.47;;;22.20;99.90;;;;;;4968565;28;20082;-81
2021/11/05 12:16:21;;;;;;;16.08;6.70;;;22.40;99.90;;;;;;4950926;29;20043;-81
2021/11/05 12:18:58;;;;;;;11.13;6.35;;;22.60;99.90;;;;;;4971584;28;20035;-81
2021/11/05 12:21:30;;;;;;;13.70;7.05;;;22.80;99.90;;;;;;4972791;28;20078;-83
2021/11/05 12:24:16;;;;;;;19.60;7.82;;;22.80;99.90;;;;;;4957297;28;20106;-80
2021/11/05 12:27:07;;;;;;;14.45;6.85;;;22.60;99.90;;;;;;4956802;28;20069;-83
2021/11/05 12:29:36;;;;;;;15.93;7.43;;;23.00;99.90;;;;;;4973882;28;20106;-82
2021/11/05 12:32:19;;;;;;;12.60;6.72;;;23.90;99.90;;;;;;4967893;28;20674;-81
2021/11/05 12:34:50;;;;;;;13.55;7.20;;;23.70;99.90;;;;;;4954319;28;20236;-79
2021/11/05 12:37:41;;;;;;;11.43;5.95;;;24.10;99.90;;;;;;4944447;28;20126;-80
2021/11/05 12:40:38;;;;;;;11.98;5.78;;;24.50;99.60;;;;;;4970409;28;20150;-81
2021/11/05 12:43:28;;;;;;;8.40;5.40;;;26.20;97.20;;;;;;4973998;28;20070;-82